Time;durP1;ratioP1;P1;durP2;ratioP2;P2;SDS_P1;SDS_P2;PMS_P1;PMS_P2;Temp;Humidity;BMP_temperature;BMP_pressure;BME280_temperature;BME280_humidity;BME280_pressure;Samples;Min_cycle;Max_cycle;Signal;HPM_P1;HPM_P2
2021/01/28 00:02:16;;;;;;;21.58;11.38;;;;;;;;;;5036082;28;20375;-66
2021/01/28 00:04:42;;;;;;;19.70;11.43;;;;;;;;;;5035778;28;20029;-66
2021/01/28 00:07:09;;;;;;;21.90;10.77;;;;;;;;;;5035615;28;20029;-66
2021/01/28 00:09:35;;;;;;;18.92;9.32;;;;;;;;;;5035188;28;20057;-66
2021/01/28 00:12:01;;;;;;;19.63;10.27;;;;;;;;;;5024574;28;20030;-66
2021/01/28 00:14:27;;;;;;;17.90;9.50;;;;;;;;;;5015808;28;20033;-66
2021/01/28 00:16:53;;;;;;;19.27;10.05;;;;;;;;;;5031704;28;20051;-66
2021/01/28 00:19:19;;;;;;;17.52;9.35;;;;;;;;;;5035410;28;20040;-66
2021/01/28 00:21:45;;;;;;;16.60;9.10;;;;;;;;;;5035744;28;20025;-66
2021/01/28 00:24:11;;;;;;;15.70;9.07;;;;;;;;;;5026557;28;20081;-66
2021/01/28 00:26:38;;;;;;;18.25;8.82;;;;;;;;;;5015445;28;20033;-66
2021/01/28 00:29:05;;;;;;;16.88;8.45;;;;;;;;;;5029531;28;20065;-66
2021/01/28 00:31:31;;;;;;;17.05;8.18;;;;;;;;;;5035024;28;20029;-65
2021/01/28 00:33:57;;;;;;;16.17;8.52;;;;;;;;;;5035583;28;20017;-66
2021/01/28 00:36:23;;;;;;;15.50;8.13;;;;;;;;;;5035233;28;20033;-66
2021/01/28 00:38:50;;;;;;;14.13;7.90;;;;;;;;;;5035398;28;20029;-66
2021/01/28 00:41:16;;;;;;;20.23;8.85;;;;;;;;;;5035085;28;20030;-66
2021/01/28 00:43:42;;;;;;;13.90;7.22;;;;;;;;;;5028723;28;20025;-66
2021/01/28 00:46:08;;;;;;;13.65;7.40;;;;;;;;;;5015272;28;20029;-66
2021/01/28 00:48:35;;;;;;;13.13;7.07;;;;;;;;;;5015421;28;20084;-66
2021/01/28 00:51:01;;;;;;;14.43;7.72;;;;;;;;;;5015337;28;20030;-66
2021/01/28 00:53:28;;;;;;;13.85;7.60;;;;;;;;;;5015090;28;20483;-66
2021/01/28 00:55:54;;;;;;;12.63;7.40;;;;;;;;;;5015017;28;20084;-66
2021/01/28 00:58:21;;;;;;;14.50;7.50;;;;;;;;;;5015201;28;20022;-66
2021/01/28 01:00:47;;;;;;;14.18;6.70;;;;;;;;;;5014993;28;20551;-66
2021/01/28 01:03:15;;;;;;;12.85;6.78;;;;;;;;;;5014718;28;20467;-66
2021/01/28 01:05:41;;;;;;;11.15;6.20;;;;;;;;;;5014982;28;20029;-66
2021/01/28 01:08:11;;;;;;;12.18;6.55;;;;;;;;;;5015085;28;20022;-65
2021/01/28 01:10:48;;;;;;;11.20;6.43;;;;;;;;;;5014830;28;20030;-66
2021/01/28 01:13:15;;;;;;;16.02;7.28;;;;;;;;;;5014610;28;20418;-66
2021/01/28 01:15:42;;;;;;;12.63;6.93;;;;;;;;;;5014720;28;20481;-66
2021/01/28 01:18:09;;;;;;;12.32;6.28;;;;;;;;;;5014562;28;20026;-66
2021/01/28 01:20:35;;;;;;;13.02;6.90;;;;;;;;;;5014526;28;20080;-66
2021/01/28 01:23:01;;;;;;;15.52;6.70;;;;;;;;;;5013998;28;20033;-66
2021/01/28 01:25:27;;;;;;;15.25;6.60;;;;;;;;;;5014323;28;20075;-66
2021/01/28 01:27:53;;;;;;;15.55;7.20;;;;;;;;;;5014384;28;20510;-66
2021/01/28 01:30:20;;;;;;;15.93;7.70;;;;;;;;;;5014718;28;20379;-66
2021/01/28 01:32:46;;;;;;;14.38;6.80;;;;;;;;;;5014134;28;20037;-66
2021/01/28 01:35:14;;;;;;;14.45;6.78;;;;;;;;;;5014525;28;20025;-66
2021/01/28 01:37:40;;;;;;;13.52;6.78;;;;;;;;;;5014249;28;20033;-66
2021/01/28 01:40:09;;;;;;;11.00;6.38;;;;;;;;;;5014240;28;20029;-66
2021/01/28 01:42:35;;;;;;;12.30;6.35;;;;;;;;;;5014229;28;20026;-66
2021/01/28 01:45:01;;;;;;;13.32;6.20;;;;;;;;;;5014418;28;20025;-66
2021/01/28 01:47:27;;;;;;;11.80;5.70;;;;;;;;;;5014173;28;20034;-66
2021/01/28 01:52:58;;;;;;;13.30;6.43;;;;;;;;;;5014098;28;20049;-66
2021/01/28 01:55:25;;;;;;;14.65;6.43;;;;;;;;;;5014002;28;20026;-66
2021/01/28 01:57:51;;;;;;;12.38;6.15;;;;;;;;;;5014043;28;20522;-66
2021/01/28 02:00:18;;;;;;;10.70;6.15;;;;;;;;;;5014214;28;20022;-66
2021/01/28 02:02:46;;;;;;;12.20;5.85;;;;;;;;;;5013935;28;20435;-66
2021/01/28 02:05:21;;;;;;;11.30;6.20;;;;;;;;;;5013844;28;20030;-66
2021/01/28 02:07:48;;;;;;;10.60;5.68;;;;;;;;;;5014250;28;20033;-66
2021/01/28 02:10:15;;;;;;;10.50;5.63;;;;;;;;;;5014089;28;20026;-66
2021/01/28 02:12:41;;;;;;;11.20;6.15;;;;;;;;;;5014260;28;20477;-66
2021/01/28 02:15:09;;;;;;;10.82;6.22;;;;;;;;;;5013978;28;20049;-66
2021/01/28 02:17:36;;;;;;;11.02;5.57;;;;;;;;;;5013692;28;20022;-65
2021/01/28 02:20:23;;;;;;;13.18;6.20;;;;;;;;;;5013943;28;20030;-65
2021/01/28 02:22:49;;;;;;;12.13;5.70;;;;;;;;;;5003340;28;20053;-65
2021/01/28 02:25:19;;;;;;;9.48;5.75;;;;;;;;;;5013443;28;20057;-66
2021/01/28 02:27:45;;;;;;;12.38;6.90;;;;;;;;;;5013601;28;20022;-65
2021/01/28 02:30:25;;;;;;;12.98;6.68;;;;;;;;;;5013813;28;20374;-65
2021/01/28 02:32:52;;;;;;;14.35;7.00;;;;;;;;;;5013510;28;20045;-66
2021/01/28 02:35:21;;;;;;;16.00;6.72;;;;;;;;;;5013789;28;20059;-66
2021/01/28 02:37:48;;;;;;;13.20;6.82;;;;;;;;;;5013776;28;20419;-66
2021/01/28 02:40:15;;;;;;;14.50;7.10;;;;;;;;;;5013666;28;20030;-66
2021/01/28 02:42:41;;;;;;;13.15;6.70;;;;;;;;;;5013626;28;20446;-65
2021/01/28 02:45:08;;;;;;;15.98;6.80;;;;;;;;;;5013343;28;20539;-66
2021/01/28 02:47:34;;;;;;;16.38;6.55;;;;;;;;;;5013380;28;20052;-66
2021/01/28 02:50:00;;;;;;;9.85;5.30;;;;;;;;;;5013272;28;20033;-66
2021/01/28 02:52:26;;;;;;;12.40;6.22;;;;;;;;;;5013322;28;20042;-66
2021/01/28 02:54:53;;;;;;;10.68;6.07;;;;;;;;;;5013439;28;20033;-65
2021/01/28 02:57:20;;;;;;;10.10;5.68;;;;;;;;;;5013393;28;20048;-65
2021/01/28 02:59:46;;;;;;;11.20;6.18;;;;;;;;;;5013328;28;20478;-65
2021/01/28 03:02:17;;;;;;;10.23;5.70;;;;;;;;;;5013686;28;20101;-65
2021/01/28 03:04:43;;;;;;;11.10;5.93;;;;;;;;;;5013293;28;20112;-65
2021/01/28 03:07:11;;;;;;;11.85;5.45;;;;;;;;;;5013528;28;20052;-66
2021/01/28 03:09:37;;;;;;;8.43;4.55;;;;;;;;;;5013480;28;20034;-65
2021/01/28 03:12:05;;;;;;;11.23;5.53;;;;;;;;;;5013220;28;20061;-65
2021/01/28 03:14:31;;;;;;;12.23;4.40;;;;;;;;;;5013230;28;20109;-66
2021/01/28 03:16:57;;;;;;;10.27;5.32;;;;;;;;;;5013134;28;20022;-65
2021/01/28 03:19:23;;;;;;;9.60;4.40;;;;;;;;;;5013059;28;20030;-66
2021/01/28 03:21:49;;;;;;;9.65;5.32;;;;;;;;;;5013363;28;20056;-65
2021/01/28 03:24:16;;;;;;;10.77;5.43;;;;;;;;;;5013130;28;20099;-66
2021/01/28 03:26:42;;;;;;;16.80;5.57;;;;;;;;;;5012900;28;20030;-65
2021/01/28 03:29:09;;;;;;;12.25;5.30;;;;;;;;;;5013053;28;20490;-66
2021/01/28 03:31:36;;;;;;;15.88;5.35;;;;;;;;;;5013153;28;20026;-65
2021/01/28 03:34:02;;;;;;;9.48;4.97;;;;;;;;;;5013044;28;20030;-65
2021/01/28 03:36:28;;;;;;;9.68;5.40;;;;;;;;;;5012871;28;20022;-65
2021/01/28 03:38:54;;;;;;;10.63;5.18;;;;;;;;;;5012918;28;20040;-65
2021/01/28 03:41:20;;;;;;;10.52;4.93;;;;;;;;;;5012804;28;20046;-65
2021/01/28 03:43:46;;;;;;;9.77;4.93;;;;;;;;;;5013166;28;20026;-65
2021/01/28 03:46:13;;;;;;;12.95;4.97;;;;;;;;;;5015537;28;20076;-65
2021/01/28 03:48:40;;;;;;;11.10;5.53;;;;;;;;;;5016348;28;20030;-65
2021/01/28 03:51:06;;;;;;;11.93;4.97;;;;;;;;;;5016527;28;20053;-66
2021/01/28 03:53:32;;;;;;;10.82;5.18;;;;;;;;;;5016277;28;20049;-66
2021/01/28 03:55:58;;;;;;;9.55;5.07;;;;;;;;;;5016082;28;20479;-66
2021/01/28 03:58:25;;;;;;;9.50;5.00;;;;;;;;;;5016523;28;20033;-66
2021/01/28 04:00:52;;;;;;;9.43;4.30;;;;;;;;;;5016059;28;20068;-65
2021/01/28 04:03:18;;;;;;;10.32;5.03;;;;;;;;;;5016129;28;20034;-66
2021/01/28 04:05:44;;;;;;;9.82;4.70;;;;;;;;;;5016327;28;20391;-65
2021/01/28 04:08:11;;;;;;;9.80;5.07;;;;;;;;;;5016363;28;20099;-66
2021/01/28 04:10:38;;;;;;;14.93;5.30;;;;;;;;;;5015891;28;20026;-65
2021/01/28 04:13:05;;;;;;;16.17;5.05;;;;;;;;;;5015783;28;20034;-66
2021/01/28 04:15:32;;;;;;;8.45;4.93;;;;;;;;;;5015835;28;20849;-66
2021/01/28 04:17:58;;;;;;;14.27;5.38;;;;;;;;;;5015794;28;20030;-66
2021/01/28 04:20:28;;;;;;;12.88;5.00;;;;;;;;;;5016045;28;20018;-66
2021/01/28 04:22:55;;;;;;;9.77;5.40;;;;;;;;;;5015726;28;20056;-66
2021/01/28 04:25:21;;;;;;;9.88;5.00;;;;;;;;;;5015515;28;20487;-66
2021/01/28 04:27:48;;;;;;;11.15;5.05;;;;;;;;;;5015657;28;20069;-65
2021/01/28 04:30:17;;;;;;;11.63;4.75;;;;;;;;;;5015667;28;20030;-66
2021/01/28 04:32:43;;;;;;;8.02;4.22;;;;;;;;;;5015340;28;20034;-66
2021/01/28 04:35:09;;;;;;;11.48;4.88;;;;;;;;;;5015599;28;20029;-66
2021/01/28 04:37:36;;;;;;;10.50;5.47;;;;;;;;;;5015600;28;20049;-66
2021/01/28 04:40:03;;;;;;;8.82;4.82;;;;;;;;;;5015441;28;20026;-65
2021/01/28 04:42:50;;;;;;;9.05;4.40;;;;;;;;;;5015243;28;20061;-66
2021/01/28 04:45:19;;;;;;;8.65;4.50;;;;;;;;;;5015695;28;20076;-66
2021/01/28 04:47:55;;;;;;;8.70;4.78;;;;;;;;;;5015494;28;20091;-65
2021/01/28 04:50:24;;;;;;;9.98;4.35;;;;;;;;;;5015173;28;20022;-65
2021/01/28 04:52:52;;;;;;;10.57;4.65;;;;;;;;;;5015362;28;20426;-65
2021/01/28 04:55:21;;;;;;;8.57;4.70;;;;;;;;;;5015205;28;20029;-65
2021/01/28 04:57:47;;;;;;;9.43;4.82;;;;;;;;;;5014996;28;20032;-65
2021/01/28 05:00:13;;;;;;;9.70;4.82;;;;;;;;;;5015027;28;20021;-64
2021/01/28 05:02:40;;;;;;;9.57;4.38;;;;;;;;;;5014804;28;20030;-66
2021/01/28 05:05:07;;;;;;;9.73;5.18;;;;;;;;;;5014870;28;20025;-65
2021/01/28 05:07:36;;;;;;;18.70;6.85;;;;;;;;;;5015112;28;20038;-65
2021/01/28 05:10:06;;;;;;;17.25;4.95;;;;;;;;;;5015164;28;20026;-65
2021/01/28 05:12:32;;;;;;;9.73;5.00;;;;;;;;;;5013480;28;20042;-65
2021/01/28 05:15:16;;;;;;;10.32;5.65;;;;;;;;;;5015129;28;20033;-65
2021/01/28 05:17:43;;;;;;;10.48;4.90;;;;;;;;;;5023175;28;20026;-65
2021/01/28 05:20:20;;;;;;;11.60;4.55;;;;;;;;;;5014892;28;20033;-65
2021/01/28 05:22:56;;;;;;;12.25;5.43;;;;;;;;;;5014697;28;20038;-65
2021/01/28 05:25:29;;;;;;;8.63;5.30;;;;;;;;;;5014239;28;20053;-65
2021/01/28 05:27:55;;;;;;;12.18;4.70;;;;;;;;;;5014408;28;20073;-64
2021/01/28 05:30:44;;;;;;;8.50;4.53;;;;;;;;;;5014530;28;20061;-65
2021/01/28 05:33:29;;;;;;;10.63;5.45;;;;;;;;;;5014641;28;20033;-65
2021/01/28 05:36:02;;;;;;;10.77;4.70;;;;;;;;;;5014389;28;20026;-65
2021/01/28 05:38:32;;;;;;;10.52;4.65;;;;;;;;;;5014480;28;20049;-64
2021/01/28 05:41:00;;;;;;;9.70;4.53;;;;;;;;;;5014609;28;20026;-66
2021/01/28 05:43:35;;;;;;;9.90;5.82;;;;;;;;;;5014195;28;20026;-65
2021/01/28 05:46:11;;;;;;;13.20;5.65;;;;;;;;;;5014696;28;20076;-65
2021/01/28 05:48:37;;;;;;;11.85;5.82;;;;;;;;;;5014057;28;20030;-65
2021/01/28 05:51:10;;;;;;;15.95;6.30;;;;;;;;;;5014334;28;20025;-65
2021/01/28 05:53:37;;;;;;;24.08;8.18;;;;;;;;;;5012135;28;20045;-65
2021/01/28 05:56:06;;;;;;;16.13;6.05;;;;;;;;;;5010765;28;20045;-65
2021/01/28 05:58:35;;;;;;;18.80;7.20;;;;;;;;;;5012878;28;20034;-64
2021/01/28 06:01:22;;;;;;;21.75;8.90;;;;;;;;;;5012037;28;20037;-64
2021/01/28 06:04:17;;;;;;;12.13;5.47;;;;;;;;;;4993607;28;20033;-64
2021/01/28 06:06:49;;;;;;;10.85;5.05;;;;;;;;;;4985527;28;20043;-65
2021/01/28 06:09:15;;;;;;;;;;;;;;;;;;4994461;28;20041;-65
2021/01/28 06:11:56;;;;;;;35.50;16.40;;;;;;;;;;4994366;28;20348;-65
2021/01/28 06:14:41;;;;;;;13.90;7.45;;;;;;;;;;4994071;28;20125;-65
2021/01/28 06:17:10;;;;;;;19.40;7.50;;;;;;;;;;4994353;28;20507;-65
2021/01/28 06:19:43;;;;;;;26.17;15.45;;;;;;;;;;4994224;28;20452;-65
2021/01/28 06:22:31;;;;;;;23.27;12.35;;;;;;;;;;4994197;28;20046;-65
2021/01/28 06:25:16;;;;;;;22.63;11.52;;;;;;;;;;4993642;28;20096;-65
2021/01/28 06:27:48;;;;;;;28.58;13.63;;;;;;;;;;4993908;28;20031;-65
2021/01/28 06:30:14;;;;;;;;;;;;;;;;;;4994351;28;20072;-65
2021/01/28 06:32:59;;;;;;;24.40;12.00;;;;;;;;;;4993810;28;19910;-64
2021/01/28 06:35:44;;;;;;;24.92;11.63;;;;;;;;;;4994151;28;20358;-64
2021/01/28 06:38:17;;;;;;;21.05;8.40;;;;;;;;;;4993906;28;20065;-64
2021/01/28 06:40:47;;;;;;;13.82;8.07;;;;;;;;;;4994063;28;20026;-65
2021/01/28 06:43:17;;;;;;;20.02;8.35;;;;;;;;;;4993713;28;20077;-64
2021/01/28 06:45:53;;;;;;;14.50;7.30;;;;;;;;;;4993856;28;20030;-64
2021/01/28 06:48:25;;;;;;;18.17;7.80;;;;;;;;;;4993635;28;20034;-65
2021/01/28 06:50:52;;;;;;;13.45;5.70;;;;;;;;;;5004756;28;20099;-65
2021/01/28 06:53:21;;;;;;;22.10;6.03;;;;;;;;;;5013546;28;20038;-65
2021/01/28 06:56:16;;;;;;;17.02;7.15;;;;;;;;;;5015856;28;20022;-64
2021/01/28 06:58:55;;;;;;;17.40;8.35;;;;;;;;;;4979773;28;20050;-65
2021/01/28 07:01:40;;;;;;;18.95;9.95;;;;;;;;;;5033360;28;20021;-65
2021/01/28 07:04:13;;;;;;;21.70;8.00;;;;;;;;;;5033094;28;20060;-65
2021/01/28 07:07:01;;;;;;;12.93;7.07;;;;;;;;;;5033120;28;20374;-65
2021/01/28 07:09:27;;;;;;;16.38;6.35;;;;;;;;;;5032795;28;20032;-65
2021/01/28 07:11:55;;;;;;;21.85;9.05;;;;;;;;;;5023106;28;20034;-65
2021/01/28 07:14:22;;;;;;;22.23;10.52;;;;;;;;;;5013325;28;20457;-66
2021/01/28 07:16:48;;;;;;;14.77;8.50;;;;;;;;;;5013152;28;20022;-64
2021/01/28 07:19:20;;;;;;;21.35;10.38;;;;;;;;;;5013030;28;20022;-64
2021/01/28 07:21:48;;;;;;;27.90;15.98;;;;;;;;;;5022626;28;20060;-65
2021/01/28 07:24:28;;;;;;;22.88;11.90;;;;;;;;;;5016582;28;20054;-64
2021/01/28 07:27:02;;;;;;;19.38;10.10;;;;;;;;;;5016739;28;20042;-65
2021/01/28 07:29:28;;;;;;;18.08;9.07;;;;;;;;;;5032120;28;20036;-64
2021/01/28 07:31:55;;;;;;;13.65;7.35;;;;;;;;;;5036434;28;20034;-65
2021/01/28 07:34:21;;;;;;;15.30;7.88;;;;;;;;;;5036302;28;20029;-65
2021/01/28 07:36:49;;;;;;;16.50;6.80;;;;;;;;;;5036636;28;20063;-65
2021/01/28 07:39:47;;;;;;;19.35;6.97;;;;;;;;;;5036372;28;20052;-65
2021/01/28 07:42:16;;;;;;;16.23;6.53;;;;;;;;;;5003123;28;20382;-65
2021/01/28 07:44:47;;;;;;;14.05;6.38;;;;;;;;;;5036402;28;20395;-63
2021/01/28 07:47:31;;;;;;;27.48;8.20;;;;;;;;;;5036090;28;20025;-64
2021/01/28 07:50:16;;;;;;;20.55;7.57;;;;;;;;;;5034539;28;20029;-64
2021/01/28 07:52:43;;;;;;;21.92;8.45;;;;;;;;;;5024763;28;20069;-65
2021/01/28 07:55:29;;;;;;;18.65;7.78;;;;;;;;;;5018953;28;20022;-64
2021/01/28 07:57:56;;;;;;;15.10;8.35;;;;;;;;;;5015338;28;20087;-64
2021/01/28 08:00:24;;;;;;;21.83;9.73;;;;;;;;;;5020613;28;20025;-65
2021/01/28 08:03:04;;;;;;;15.82;6.05;;;;;;;;;;5019778;28;20117;-65
2021/01/28 08:05:33;;;;;;;17.45;9.25;;;;;;;;;;5022534;28;20034;-65
2021/01/28 08:08:07;;;;;;;17.17;6.40;;;;;;;;;;5028395;28;20420;-65
2021/01/28 08:10:35;;;;;;;15.38;7.55;;;;;;;;;;5022257;28;20026;-66
2021/01/28 08:13:03;;;;;;;14.95;7.65;;;;;;;;;;5015823;28;20038;-66
2021/01/28 08:15:49;;;;;;;14.48;6.88;;;;;;;;;;5015760;28;20026;-66
2021/01/28 08:18:15;;;;;;;29.10;14.50;;;;;;;;;;5015819;28;20502;-66
2021/01/28 08:20:41;;;;;;;15.60;7.60;;;;;;;;;;5015672;28;20475;-66
2021/01/28 08:23:15;;;;;;;18.17;7.90;;;;;;;;;;5015747;28;20034;-65
2021/01/28 08:25:51;;;;;;;18.88;6.63;;;;;;;;;;5015498;28;20100;-65
2021/01/28 08:28:17;;;;;;;13.70;8.95;;;;;;;;;;5015712;28;20479;-65
2021/01/28 08:30:45;;;;;;;20.90;9.05;;;;;;;;;;5033993;28;21376;-65
2021/01/28 08:33:22;;;;;;;30.05;15.13;;;;;;;;;;5042761;28;20124;-66
2021/01/28 08:35:49;;;;;;;14.23;6.32;;;;;;;;;;5035246;28;20029;-65
2021/01/28 08:38:17;;;;;;;15.23;7.18;;;;;;;;;;5041522;28;20025;-65
2021/01/28 08:40:47;;;;;;;16.13;7.53;;;;;;;;;;5054883;28;20036;-66
2021/01/28 08:43:20;;;;;;;16.52;7.82;;;;;;;;;;5055446;28;20087;-66
2021/01/28 08:45:46;;;;;;;12.15;7.07;;;;;;;;;;5055192;28;20418;-65
2021/01/28 08:48:15;;;;;;;15.32;6.22;;;;;;;;;;5055273;28;20477;-66
2021/01/28 08:50:43;;;;;;;12.45;5.97;;;;;;;;;;5054829;28;20060;-66
2021/01/28 08:53:15;;;;;;;14.75;6.40;;;;;;;;;;5054884;28;20087;-65
2021/01/28 08:55:41;;;;;;;14.45;5.88;;;;;;;;;;5054827;28;20075;-66
2021/01/28 08:58:20;;;;;;;12.82;7.20;;;;;;;;;;5054751;28;20083;-62
2021/01/28 09:00:47;;;;;;;18.85;7.47;;;;;;;;;;5055053;28;20032;-65
2021/01/28 09:03:16;;;;;;;13.00;7.28;;;;;;;;;;5054941;28;20385;-64
2021/01/28 09:05:42;;;;;;;16.20;7.68;;;;;;;;;;5054714;28;20103;-64
2021/01/28 09:08:23;;;;;;;16.38;7.50;;;;;;;;;;5049914;28;20096;-64
2021/01/28 09:10:49;;;;;;;12.90;7.13;;;;;;;;;;5036931;28;20428;-64
2021/01/28 09:13:17;;;;;;;14.13;6.40;;;;;;;;;;5034227;28;20494;-64
2021/01/28 09:15:43;;;;;;;17.52;6.07;;;;;;;;;;5034811;28;20171;-64
2021/01/28 09:18:16;;;;;;;18.38;6.45;;;;;;;;;;5036302;28;20059;-64
2021/01/28 09:20:42;;;;;;;17.52;8.73;;;;;;;;;;5054355;28;20108;-65
2021/01/28 09:23:11;;;;;;;16.88;9.88;;;;;;;;;;5054140;28;20043;-64
2021/01/28 09:25:38;;;;;;;28.23;14.35;;;;;;;;;;5054002;28;20041;-64
2021/01/28 09:28:06;;;;;;;57.88;27.67;;;;;;;;;;5054446;28;20037;-65
2021/01/28 09:30:37;;;;;;;30.67;13.50;;;;;;;;;;5054005;28;20033;-65
2021/01/28 09:33:21;;;;;;;28.95;13.45;;;;;;;;;;5054254;28;20032;-65
2021/01/28 09:36:06;;;;;;;16.50;8.50;;;;;;;;;;5035665;28;20045;-64
2021/01/28 09:38:33;;;;;;;20.45;8.75;;;;;;;;;;5034027;28;20033;-63
2021/01/28 09:41:12;;;;;;;19.67;9.00;;;;;;;;;;5034588;28;20553;-63
2021/01/28 09:43:38;;;;;;;15.90;6.97;;;;;;;;;;5034201;28;20022;-64
2021/01/28 09:46:14;;;;;;;12.57;7.00;;;;;;;;;;5039737;28;20033;-63
2021/01/28 09:48:40;;;;;;;20.10;6.95;;;;;;;;;;5051982;28;20485;-64
2021/01/28 09:51:07;;;;;;;20.40;7.68;;;;;;;;;;5035730;28;20112;-65
2021/01/28 09:53:34;;;;;;;20.73;7.78;;;;;;;;;;5033947;28;20040;-64
2021/01/28 09:56:00;;;;;;;13.18;8.07;;;;;;;;;;5033549;28;20419;-64
2021/01/28 09:58:26;;;;;;;22.50;8.05;;;;;;;;;;5042453;28;20037;-64
2021/01/28 10:00:52;;;;;;;27.92;7.72;;;;;;;;;;5035805;28;20024;-64
2021/01/28 10:03:20;;;;;;;21.90;8.55;;;;;;;;;;5044778;28;20047;-62
2021/01/28 10:05:46;;;;;;;18.52;8.70;;;;;;;;;;5033176;28;20535;-63
2021/01/28 10:08:14;;;;;;;19.55;7.25;;;;;;;;;;5032893;28;20029;-63
2021/01/28 10:10:40;;;;;;;19.42;7.78;;;;;;;;;;5036520;28;20421;-63
2021/01/28 10:13:09;;;;;;;15.80;7.40;;;;;;;;;;5032972;28;20071;-64
2021/01/28 10:15:36;;;;;;;20.45;7.95;;;;;;;;;;5030632;28;20021;-63
2021/01/28 10:18:03;;;;;;;19.90;7.75;;;;;;;;;;5032776;28;20021;-62
2021/01/28 10:20:29;;;;;;;16.73;8.23;;;;;;;;;;5032713;28;20037;-62
2021/01/28 10:22:58;;;;;;;15.27;7.93;;;;;;;;;;5032779;28;20029;-62
2021/01/28 10:25:24;;;;;;;17.50;8.60;;;;;;;;;;5033048;28;20049;-63
2021/01/28 10:27:50;;;;;;;19.50;9.77;;;;;;;;;;5033597;28;20389;-63
2021/01/28 10:30:17;;;;;;;33.00;15.30;;;;;;;;;;5036260;28;20044;-63
2021/01/28 10:32:44;;;;;;;27.98;11.48;;;;;;;;;;5052869;28;20496;-63
2021/01/28 10:35:11;;;;;;;31.00;13.35;;;;;;;;;;5053108;28;20028;-63
2021/01/28 10:37:37;;;;;;;23.00;8.98;;;;;;;;;;5032542;28;20474;-64
2021/01/28 10:40:04;;;;;;;28.60;10.00;;;;;;;;;;5032043;28;20101;-64
2021/01/28 10:42:32;;;;;;;17.55;8.32;;;;;;;;;;5032366;28;20026;-63
2021/01/28 10:45:00;;;;;;;13.60;8.50;;;;;;;;;;5033153;28;20130;-64
2021/01/28 10:47:26;;;;;;;20.63;8.00;;;;;;;;;;5033072;28;20025;-64
2021/01/28 10:49:52;;;;;;;14.75;7.30;;;;;;;;;;5033034;28;20036;-64
2021/01/28 10:52:18;;;;;;;20.33;8.05;;;;;;;;;;5032886;28;20037;-63
2021/01/28 10:54:44;;;;;;;28.05;8.90;;;;;;;;;;5035315;28;20044;-64
2021/01/28 10:57:10;;;;;;;25.15;10.38;;;;;;;;;;5037343;28;20025;-64
2021/01/28 10:59:37;;;;;;;21.30;11.23;;;;;;;;;;5037527;28;20049;-64
2021/01/28 11:02:03;;;;;;;26.17;10.32;;;;;;;;;;5036990;28;20097;-64
2021/01/28 11:04:30;;;;;;;20.17;10.43;;;;;;;;;;5036917;28;20470;-64
2021/01/28 11:06:57;;;;;;;23.20;10.88;;;;;;;;;;5036889;28;20554;-64
2021/01/28 11:09:23;;;;;;;19.52;10.73;;;;;;;;;;5036828;28;20471;-64
2021/01/28 11:11:49;;;;;;;23.20;10.40;;;;;;;;;;5036692;28;20030;-64
2021/01/28 11:14:15;;;;;;;22.27;11.15;;;;;;;;;;5036688;28;20112;-63
2021/01/28 11:16:41;;;;;;;20.90;11.32;;;;;;;;;;5036693;28;20020;-63
2021/01/28 11:19:07;;;;;;;40.45;14.32;;;;;;;;;;5036686;28;20025;-64
2021/01/28 11:21:34;;;;;;;25.75;12.23;;;;;;;;;;5036618;28;20026;-63
2021/01/28 11:24:00;;;;;;;26.23;10.35;;;;;;;;;;5036478;28;20018;-63
2021/01/28 11:26:27;;;;;;;20.05;9.00;;;;;;;;;;5036572;28;20033;-63
2021/01/28 11:28:53;;;;;;;21.88;9.63;;;;;;;;;;5036778;28;20025;-64
2021/01/28 11:31:19;;;;;;;17.15;8.45;;;;;;;;;;5036384;28;20036;-63
2021/01/28 11:33:45;;;;;;;26.65;10.48;;;;;;;;;;5036544;28;20041;-63
2021/01/28 11:36:11;;;;;;;17.83;8.45;;;;;;;;;;5036747;28;20021;-63
2021/01/28 11:38:37;;;;;;;25.30;9.63;;;;;;;;;;5036218;28;20083;-64
2021/01/28 11:41:05;;;;;;;18.45;9.40;;;;;;;;;;5036597;28;20021;-63
2021/01/28 11:43:31;;;;;;;20.27;9.60;;;;;;;;;;5036130;28;20041;-63
2021/01/28 11:45:57;;;;;;;22.17;10.02;;;;;;;;;;5036477;28;20442;-63
2021/01/28 11:48:23;;;;;;;26.45;10.75;;;;;;;;;;5035928;28;20032;-63
2021/01/28 11:50:50;;;;;;;24.30;11.23;;;;;;;;;;5036000;28;20022;-64
2021/01/28 11:53:16;;;;;;;30.60;12.13;;;;;;;;;;5035925;28;20124;-64
2021/01/28 11:55:42;;;;;;;27.65;11.13;;;;;;;;;;5036017;28;20037;-64
2021/01/28 11:58:09;;;;;;;21.23;11.18;;;;;;;;;;5036181;28;20026;-63
2021/01/28 12:00:35;;;;;;;26.65;11.95;;;;;;;;;;5036245;28;20117;-63
2021/01/28 12:03:04;;;;;;;21.13;10.80;;;;;;;;;;5036194;28;20017;-63
2021/01/28 12:05:30;;;;;;;22.48;9.57;;;;;;;;;;5034968;28;20061;-63
2021/01/28 12:07:57;;;;;;;27.95;9.98;;;;;;;;;;5034563;28;20021;-64
2021/01/28 12:10:24;;;;;;;18.73;9.93;;;;;;;;;;5035737;28;20034;-63
2021/01/28 12:12:50;;;;;;;22.85;9.50;;;;;;;;;;5034451;28;20126;-64
2021/01/28 12:15:18;;;;;;;19.85;8.13;;;;;;;;;;5035871;28;20449;-63
2021/01/28 12:17:45;;;;;;;15.63;7.85;;;;;;;;;;5035819;28;20026;-63
2021/01/28 12:20:12;;;;;;;18.98;7.30;;;;;;;;;;5035536;28;20524;-63
2021/01/28 12:22:38;;;;;;;13.82;7.25;;;;;;;;;;5035566;28;20039;-63
2021/01/28 12:25:05;;;;;;;20.30;7.53;;;;;;;;;;5035411;28;20042;-64
2021/01/28 12:27:32;;;;;;;12.77;6.90;;;;;;;;;;5035377;28;20080;-62
2021/01/28 12:30:00;;;;;;;11.82;6.93;;;;;;;;;;5035388;28;20470;-63
2021/01/28 12:32:27;;;;;;;12.40;7.32;;;;;;;;;;5035266;28;20033;-61
2021/01/28 12:34:53;;;;;;;17.80;6.90;;;;;;;;;;5035235;28;20103;-61
2021/01/28 12:37:19;;;;;;;10.40;6.85;;;;;;;;;;5035214;28;20513;-62
2021/01/28 12:39:45;;;;;;;15.32;7.85;;;;;;;;;;5035168;28;20117;-62
2021/01/28 12:42:12;;;;;;;12.30;7.30;;;;;;;;;;5035162;28;20469;-62
2021/01/28 12:44:38;;;;;;;12.60;7.13;;;;;;;;;;5035027;28;20025;-61
2021/01/28 12:47:04;;;;;;;22.42;7.18;;;;;;;;;;5035214;28;20086;-62
2021/01/28 12:49:31;;;;;;;12.52;7.30;;;;;;;;;;5035227;28;20022;-62
2021/01/28 12:51:57;;;;;;;12.20;7.88;;;;;;;;;;5034941;28;20064;-61
2021/01/28 12:54:24;;;;;;;18.80;7.43;;;;;;;;;;5034869;28;20034;-61
2021/01/28 12:59:19;;;;;;;15.10;8.13;;;;;;;;;;5072161;28;20475;-62
2021/01/28 13:01:45;;;;;;;14.30;8.43;;;;;;;;;;5074603;28;20033;-62
2021/01/28 13:04:11;;;;;;;22.42;9.57;;;;;;;;;;5074920;28;20024;-62
2021/01/28 13:06:38;;;;;;;24.23;10.23;;;;;;;;;;5074779;28;20059;-62
2021/01/28 13:09:04;;;;;;;31.00;11.13;;;;;;;;;;5074550;28;20032;-61
2021/01/28 13:11:31;;;;;;;18.15;9.50;;;;;;;;;;5074506;28;20029;-62
2021/01/28 13:13:57;;;;;;;24.73;8.73;;;;;;;;;;5074687;28;20040;-62
2021/01/28 13:16:23;;;;;;;19.98;9.30;;;;;;;;;;5074548;28;20386;-62
2021/01/28 13:18:49;;;;;;;16.52;8.65;;;;;;;;;;5074447;28;20059;-62
2021/01/28 13:21:16;;;;;;;22.40;10.20;;;;;;;;;;5074343;28;20023;-62
2021/01/28 13:23:42;;;;;;;23.95;9.88;;;;;;;;;;5079291;28;20028;-62
2021/01/28 13:26:08;;;;;;;29.23;11.00;;;;;;;;;;5094413;28;20027;-62
2021/01/28 13:28:34;;;;;;;34.78;12.10;;;;;;;;;;5094630;28;20028;-62
2021/01/28 13:31:00;;;;;;;30.13;10.80;;;;;;;;;;5094551;28;20024;-62
2021/01/28 13:33:27;;;;;;;23.23;10.82;;;;;;;;;;5094226;28;20036;-62
2021/01/28 13:35:53;;;;;;;30.00;11.35;;;;;;;;;;5094454;28;20020;-62
2021/01/28 13:38:19;;;;;;;25.75;10.82;;;;;;;;;;5094326;28;20055;-62
2021/01/28 13:40:45;;;;;;;30.73;10.93;;;;;;;;;;5094039;28;20020;-62
2021/01/28 13:43:12;;;;;;;28.85;11.45;;;;;;;;;;5094108;28;20111;-62
2021/01/28 13:45:38;;;;;;;23.02;11.25;;;;;;;;;;5093907;28;20024;-63
2021/01/28 13:48:05;;;;;;;27.13;11.80;;;;;;;;;;5094106;28;20388;-63
2021/01/28 13:50:33;;;;;;;21.92;10.77;;;;;;;;;;5094338;28;20362;-63
2021/01/28 13:53:00;;;;;;;26.00;10.43;;;;;;;;;;5094048;28;20023;-62
2021/01/28 13:55:26;;;;;;;18.13;9.95;;;;;;;;;;5094138;28;20039;-63
2021/01/28 13:57:53;;;;;;;18.67;10.50;;;;;;;;;;5093965;28;20040;-63
2021/01/28 14:00:20;;;;;;;19.83;10.90;;;;;;;;;;5093795;28;20035;-63
2021/01/28 14:02:49;;;;;;;15.50;10.32;;;;;;;;;;5094132;28;20043;-63
2021/01/28 14:05:15;;;;;;;16.80;9.38;;;;;;;;;;5094099;28;20107;-63
2021/01/28 14:07:41;;;;;;;10.02;5.93;;;;;;;;;;5094081;28;20103;-63
2021/01/28 14:10:08;;;;;;;11.40;7.80;;;;;;;;;;5093780;28;20016;-63
2021/01/28 14:12:35;;;;;;;13.07;7.47;;;;;;;;;;5093667;28;20517;-62
2021/01/28 14:15:01;;;;;;;15.18;7.85;;;;;;;;;;5093726;28;20109;-63
2021/01/28 14:17:27;;;;;;;12.80;8.05;;;;;;;;;;5093505;28;20092;-63
2021/01/28 14:19:53;;;;;;;11.57;8.30;;;;;;;;;;5093543;28;20073;-63
2021/01/28 14:22:19;;;;;;;16.70;9.73;;;;;;;;;;5093592;28;20103;-61
2021/01/28 14:24:45;;;;;;;14.65;9.18;;;;;;;;;;5093472;28;20032;-63
2021/01/28 14:27:12;;;;;;;17.38;9.85;;;;;;;;;;5093541;28;20024;-63
2021/01/28 14:29:38;;;;;;;16.88;8.95;;;;;;;;;;5093092;28;20028;-63
2021/01/28 14:32:04;;;;;;;13.27;9.13;;;;;;;;;;5093570;28;20024;-62
2021/01/28 14:34:30;;;;;;;12.25;8.88;;;;;;;;;;5093383;28;20377;-63
2021/01/28 14:36:57;;;;;;;22.48;9.23;;;;;;;;;;5093234;28;20024;-63
2021/01/28 14:39:23;;;;;;;13.93;8.25;;;;;;;;;;5093354;28;20066;-63
2021/01/28 14:41:49;;;;;;;16.73;9.73;;;;;;;;;;5093298;28;20483;-63
2021/01/28 14:44:15;;;;;;;14.43;9.60;;;;;;;;;;5093260;28;20528;-63